sensor_id;sensor_type;location;lat;lon;timestamp;temperature;humidity
72576;DHT22;60613;48.658;2.328;2023-03-14T00:02:17;21.50;42.00
72576;DHT22;60613;48.658;2.328;2023-03-14T00:04:42;21.50;42.00
72576;DHT22;60613;48.658;2.328;2023-03-14T00:07:10;21.50;41.90
72576;DHT22;60613;48.658;2.328;2023-03-14T00:09:36;21.50;42.00
72576;DHT22;60613;48.658;2.328;2023-03-14T00:12:02;21.50;42.00
72576;DHT22;60613;48.658;2.328;2023-03-14T00:14:29;21.50;42.00
72576;DHT22;60613;48.658;2.328;2023-03-14T00:16:55;21.50;41.90
72576;DHT22;60613;48.658;2.328;2023-03-14T00:19:20;21.50;43.10
72576;DHT22;60613;48.658;2.328;2023-03-14T00:21:46;21.50;42.10
72576;DHT22;60613;48.658;2.328;2023-03-14T00:24:12;21.40;41.90
72576;DHT22;60613;48.658;2.328;2023-03-14T00:26:38;21.40;42.00
72576;DHT22;60613;48.658;2.328;2023-03-14T00:29:03;21.40;41.90
72576;DHT22;60613;48.658;2.328;2023-03-14T00:31:29;21.40;41.90
72576;DHT22;60613;48.658;2.328;2023-03-14T00:33:55;21.50;42.00
72576;DHT22;60613;48.658;2.328;2023-03-14T00:36:21;21.40;41.90
72576;DHT22;60613;48.658;2.328;2023-03-14T00:38:49;21.40;42.00
72576;DHT22;60613;48.658;2.328;2023-03-14T00:41:18;21.40;42.00
72576;DHT22;60613;48.658;2.328;2023-03-14T00:43:44;21.40;42.10
72576;DHT22;60613;48.658;2.328;2023-03-14T00:46:10;21.50;42.10
72576;DHT22;60613;48.658;2.328;2023-03-14T00:48:36;21.50;42.00
72576;DHT22;60613;48.658;2.328;2023-03-14T00:51:02;21.40;43.20
72576;DHT22;60613;48.658;2.328;2023-03-14T00:53:28;21.50;42.00
72576;DHT22;60613;48.658;2.328;2023-03-14T00:55:54;21.40;42.00
72576;DHT22;60613;48.658;2.328;2023-03-14T00:58:20;21.40;41.90
72576;DHT22;60613;48.658;2.328;2023-03-14T01:00:46;21.40;42.10
72576;DHT22;60613;48.658;2.328;2023-03-14T01:03:13;21.40;42.00
72576;DHT22;60613;48.658;2.328;2023-03-14T01:05:39;21.40;42.10
72576;DHT22;60613;48.658;2.328;2023-03-14T01:08:06;21.50;42.00
72576;DHT22;60613;48.658;2.328;2023-03-14T01:10:32;21.40;41.90
72576;DHT22;60613;48.658;2.328;2023-03-14T01:12:58;21.50;42.00
72576;DHT22;60613;48.658;2.328;2023-03-14T01:15:24;21.50;42.00
72576;DHT22;60613;48.658;2.328;2023-03-14T01:17:49;21.50;41.90
72576;DHT22;60613;48.658;2.328;2023-03-14T01:20:16;21.50;41.80
72576;DHT22;60613;48.658;2.328;2023-03-14T07:02:37;20.60;36.50
72576;DHT22;60613;48.658;2.328;2023-03-14T07:05:03;20.20;34.60
72576;DHT22;60613;48.658;2.328;2023-03-14T07:07:29;19.90;33.80
72576;DHT22;60613;48.658;2.328;2023-03-14T07:09:54;19.70;33.80
72576;DHT22;60613;48.658;2.328;2023-03-14T07:12:20;19.50;33.90
72576;DHT22;60613;48.658;2.328;2023-03-14T07:14:46;19.40;34.20
72576;DHT22;60613;48.658;2.328;2023-03-14T07:17:11;19.20;34.20
72576;DHT22;60613;48.658;2.328;2023-03-14T07:19:37;19.10;34.20
72576;DHT22;60613;48.658;2.328;2023-03-14T07:22:04;19.00;34.00
72576;DHT22;60613;48.658;2.328;2023-03-14T07:24:30;18.90;34.00
72576;DHT22;60613;48.658;2.328;2023-03-14T07:26:55;18.90;34.90
72576;DHT22;60613;48.658;2.328;2023-03-14T07:29:21;19.10;38.50
72576;DHT22;60613;48.658;2.328;2023-03-14T07:31:46;19.40;38.40
72576;DHT22;60613;48.658;2.328;2023-03-14T07:34:12;19.60;39.00
72576;DHT22;60613;48.658;2.328;2023-03-14T07:36:37;19.80;38.90
72576;DHT22;60613;48.658;2.328;2023-03-14T07:39:03;20.10;39.10
72576;DHT22;60613;48.658;2.328;2023-03-14T07:41:30;20.20;38.80
72576;DHT22;60613;48.658;2.328;2023-03-14T07:43:55;20.30;38.60
72576;DHT22;60613;48.658;2.328;2023-03-14T07:46:21;20.40;38.40
72576;DHT22;60613;48.658;2.328;2023-03-14T07:48:47;20.50;38.40
72576;DHT22;60613;48.658;2.328;2023-03-14T07:51:12;20.60;38.40
72576;DHT22;60613;48.658;2.328;2023-03-14T07:53:38;20.60;38.40
72576;DHT22;60613;48.658;2.328;2023-03-14T07:56:04;20.70;38.20
72576;DHT22;60613;48.658;2.328;2023-03-14T07:58:30;20.80;37.90
72576;DHT22;60613;48.658;2.328;2023-03-14T08:00:58;20.80;37.80
72576;DHT22;60613;48.658;2.328;2023-03-14T08:03:24;20.90;37.80
72576;DHT22;60613;48.658;2.328;2023-03-14T08:05:50;21.00;37.70
72576;DHT22;60613;48.658;2.328;2023-03-14T08:08:17;21.10;37.40
72576;DHT22;60613;48.658;2.328;2023-03-14T08:10:43;21.10;37.40
72576;DHT22;60613;48.658;2.328;2023-03-14T08:13:09;21.10;37.20
72576;DHT22;60613;48.658;2.328;2023-03-14T08:15:35;21.20;37.20
72576;DHT22;60613;48.658;2.328;2023-03-14T08:18:02;21.20;37.20
72576;DHT22;60613;48.658;2.328;2023-03-14T08:20:29;21.20;38.40
72576;DHT22;60613;48.658;2.328;2023-03-14T08:22:59;21.20;37.20
72576;DHT22;60613;48.658;2.328;2023-03-14T08:25:26;21.30;37.20
72576;DHT22;60613;48.658;2.328;2023-03-14T08:27:52;21.30;37.20
72576;DHT22;60613;48.658;2.328;2023-03-14T08:30:19;21.30;37.30
72576;DHT22;60613;48.658;2.328;2023-03-14T08:32:45;21.40;37.30
72576;DHT22;60613;48.658;2.328;2023-03-14T08:35:11;21.30;37.30
72576;DHT22;60613;48.658;2.328;2023-03-14T08:37:37;21.40;38.10
72576;DHT22;60613;48.658;2.328;2023-03-14T08:40:04;21.40;37.50
72576;DHT22;60613;48.658;2.328;2023-03-14T08:42:32;21.40;37.30
72576;DHT22;60613;48.658;2.328;2023-03-14T08:44:58;21.50;37.70
72576;DHT22;60613;48.658;2.328;2023-03-14T08:47:24;21.50;37.40
72576;DHT22;60613;48.658;2.328;2023-03-14T08:49:50;21.60;37.50
72576;DHT22;60613;48.658;2.328;2023-03-14T08:52:15;21.60;37.30
72576;DHT22;60613;48.658;2.328;2023-03-14T08:54:44;21.60;37.20
72576;DHT22;60613;48.658;2.328;2023-03-14T08:57:10;21.60;37.50
72576;DHT22;60613;48.658;2.328;2023-03-14T08:59:36;21.60;37.20
72576;DHT22;60613;48.658;2.328;2023-03-14T09:02:02;21.60;36.90
72576;DHT22;60613;48.658;2.328;2023-03-14T09:04:32;21.70;36.60
72576;DHT22;60613;48.658;2.328;2023-03-14T09:06:59;21.70;36.70
72576;DHT22;60613;48.658;2.328;2023-03-14T09:09:25;21.70;37.00
72576;DHT22;60613;48.658;2.328;2023-03-14T09:11:55;21.70;36.70
72576;DHT22;60613;48.658;2.328;2023-03-14T09:14:21;21.70;36.60
72576;DHT22;60613;48.658;2.328;2023-03-14T09:16:46;21.70;36.80
72576;DHT22;60613;48.658;2.328;2023-03-14T09:19:12;21.80;36.70
72576;DHT22;60613;48.658;2.328;2023-03-14T09:21:37;21.70;36.60
72576;DHT22;60613;48.658;2.328;2023-03-14T09:24:04;21.80;36.60
72576;DHT22;60613;48.658;2.328;2023-03-14T09:26:30;21.80;36.70
72576;DHT22;60613;48.658;2.328;2023-03-14T09:28:55;21.80;37.20
72576;DHT22;60613;48.658;2.328;2023-03-14T09:31:21;21.80;36.80
72576;DHT22;60613;48.658;2.328;2023-03-14T09:33:47;21.80;37.00
72576;DHT22;60613;48.658;2.328;2023-03-14T09:36:12;21.90;37.10
72576;DHT22;60613;48.658;2.328;2023-03-14T09:38:38;21.80;36.60
72576;DHT22;60613;48.658;2.328;2023-03-14T09:41:21;21.90;36.40
72576;DHT22;60613;48.658;2.328;2023-03-14T09:43:50;21.90;36.80
72576;DHT22;60613;48.658;2.328;2023-03-14T09:46:20;21.90;36.70
72576;DHT22;60613;48.658;2.328;2023-03-14T09:48:46;21.90;36.80
72576;DHT22;60613;48.658;2.328;2023-03-14T09:51:15;21.90;36.80
72576;DHT22;60613;48.658;2.328;2023-03-14T09:53:45;22.00;37.30
72576;DHT22;60613;48.658;2.328;2023-03-14T09:56:17;22.00;37.30
72576;DHT22;60613;48.658;2.328;2023-03-14T09:58:47;22.00;38.00
72576;DHT22;60613;48.658;2.328;2023-03-14T10:01:16;22.00;37.70
72576;DHT22;60613;48.658;2.328;2023-03-14T10:03:45;22.00;37.40
72576;DHT22;60613;48.658;2.328;2023-03-14T10:06:12;22.10;37.20
72576;DHT22;60613;48.658;2.328;2023-03-14T10:08:43;22.10;36.60
72576;DHT22;60613;48.658;2.328;2023-03-14T10:11:16;22.10;36.70
72576;DHT22;60613;48.658;2.328;2023-03-14T10:16:32;22.00;36.60
72576;DHT22;60613;48.658;2.328;2023-03-14T10:19:07;22.10;36.70
72576;DHT22;60613;48.658;2.328;2023-03-14T10:21:40;22.10;36.50
72576;DHT22;60613;48.658;2.328;2023-03-14T10:24:31;22.10;36.20
72576;DHT22;60613;48.658;2.328;2023-03-14T10:27:08;22.00;37.40
72576;DHT22;60613;48.658;2.328;2023-03-14T10:29:52;22.00;37.30
72576;DHT22;60613;48.658;2.328;2023-03-14T10:32:20;22.00;37.20
72576;DHT22;60613;48.658;2.328;2023-03-14T10:35:07;22.10;37.00
72576;DHT22;60613;48.658;2.328;2023-03-14T10:37:34;22.10;36.50
72576;DHT22;60613;48.658;2.328;2023-03-14T10:40:01;22.10;36.40
72576;DHT22;60613;48.658;2.328;2023-03-14T10:42:32;22.10;36.60
72576;DHT22;60613;48.658;2.328;2023-03-14T10:47:49;22.10;36.80
72576;DHT22;60613;48.658;2.328;2023-03-14T10:50:28;22.10;37.00
72576;DHT22;60613;48.658;2.328;2023-03-14T10:52:55;22.10;37.00
72576;DHT22;60613;48.658;2.328;2023-03-14T10:55:24;22.10;37.00
72576;DHT22;60613;48.658;2.328;2023-03-14T10:57:51;22.10;36.90
72576;DHT22;60613;48.658;2.328;2023-03-14T11:00:22;22.10;38.00
72576;DHT22;60613;48.658;2.328;2023-03-14T11:08:33;22.10;36.30
72576;DHT22;60613;48.658;2.328;2023-03-14T11:11:16;22.10;35.90
72576;DHT22;60613;48.658;2.328;2023-03-14T11:16:29;22.10;36.40
72576;DHT22;60613;48.658;2.328;2023-03-14T11:24:27;22.20;36.20
72576;DHT22;60613;48.658;2.328;2023-03-14T11:27:07;22.20;35.90
72576;DHT22;60613;48.658;2.328;2023-03-14T11:32:36;22.20;36.70
72576;DHT22;60613;48.658;2.328;2023-03-14T11:35:26;22.20;36.70
72576;DHT22;60613;48.658;2.328;2023-03-14T11:38:23;22.10;36.20
72576;DHT22;60613;48.658;2.328;2023-03-14T11:40:50;22.10;36.50
72576;DHT22;60613;48.658;2.328;2023-03-14T11:43:22;22.20;37.30
72576;DHT22;60613;48.658;2.328;2023-03-14T11:45:50;22.20;36.50
72576;DHT22;60613;48.658;2.328;2023-03-14T11:48:40;22.20;36.30
72576;DHT22;60613;48.658;2.328;2023-03-14T11:51:55;22.10;37.30
72576;DHT22;60613;48.658;2.328;2023-03-14T11:54:18;22.10;36.60
72576;DHT22;60613;48.658;2.328;2023-03-14T11:57:03;22.20;37.00
72576;DHT22;60613;48.658;2.328;2023-03-14T12:02:33;22.20;36.00
72576;DHT22;60613;48.658;2.328;2023-03-14T12:07:43;22.10;35.90
72576;DHT22;60613;48.658;2.328;2023-03-14T12:10:16;22.10;36.60
72576;DHT22;60613;48.658;2.328;2023-03-14T12:12:42;22.10;35.70
72576;DHT22;60613;48.658;2.328;2023-03-14T12:15:21;22.10;36.60
72576;DHT22;60613;48.658;2.328;2023-03-14T12:17:55;22.10;35.90
72576;DHT22;60613;48.658;2.328;2023-03-14T12:20:25;22.20;36.20
72576;DHT22;60613;48.658;2.328;2023-03-14T12:25:26;22.20;35.10
72576;DHT22;60613;48.658;2.328;2023-03-14T12:30:30;22.20;34.90
72576;DHT22;60613;48.658;2.328;2023-03-14T12:35:58;22.20;34.40
72576;DHT22;60613;48.658;2.328;2023-03-14T12:38:29;22.20;34.60
72576;DHT22;60613;48.658;2.328;2023-03-14T12:43:41;22.20;34.50
72576;DHT22;60613;48.658;2.328;2023-03-14T12:48:39;22.10;34.40
72576;DHT22;60613;48.658;2.328;2023-03-14T12:51:13;22.10;34.10
72576;DHT22;60613;48.658;2.328;2023-03-14T12:56:49;22.10;34.10
72576;DHT22;60613;48.658;2.328;2023-03-14T13:01:53;22.10;34.00
72576;DHT22;60613;48.658;2.328;2023-03-14T13:04:30;22.10;33.80
72576;DHT22;60613;48.658;2.328;2023-03-14T13:06:59;22.10;33.70
72576;DHT22;60613;48.658;2.328;2023-03-14T13:11:53;22.10;34.30
72576;DHT22;60613;48.658;2.328;2023-03-14T13:14:19;22.10;35.00
72576;DHT22;60613;48.658;2.328;2023-03-14T13:16:46;22.10;33.60
72576;DHT22;60613;48.658;2.328;2023-03-14T13:19:26;22.10;33.90
72576;DHT22;60613;48.658;2.328;2023-03-14T13:21:56;22.10;34.10
72576;DHT22;60613;48.658;2.328;2023-03-14T13:24:27;22.10;34.00
72576;DHT22;60613;48.658;2.328;2023-03-14T13:26:54;22.10;33.90
72576;DHT22;60613;48.658;2.328;2023-03-14T13:29:28;22.10;34.00
72576;DHT22;60613;48.658;2.328;2023-03-14T13:31:59;22.10;34.40
72576;DHT22;60613;48.658;2.328;2023-03-14T13:34:28;22.10;34.10
72576;DHT22;60613;48.658;2.328;2023-03-14T13:36:55;22.10;34.00
72576;DHT22;60613;48.658;2.328;2023-03-14T13:39:23;22.10;34.00
72576;DHT22;60613;48.658;2.328;2023-03-14T13:41:55;22.10;34.00
72576;DHT22;60613;48.658;2.328;2023-03-14T13:44:39;22.10;34.10
72576;DHT22;60613;48.658;2.328;2023-03-14T13:47:10;22.10;34.30
72576;DHT22;60613;48.658;2.328;2023-03-14T13:49:38;22.10;34.00
72576;DHT22;60613;48.658;2.328;2023-03-14T13:52:36;22.10;34.30
72576;DHT22;60613;48.658;2.328;2023-03-14T13:55:04;22.10;34.10
72576;DHT22;60613;48.658;2.328;2023-03-14T13:58:01;22.10;34.20
72576;DHT22;60613;48.658;2.328;2023-03-14T14:00:27;22.10;33.90
72576;DHT22;60613;48.658;2.328;2023-03-14T14:02:56;22.10;34.00
72576;DHT22;60613;48.658;2.328;2023-03-14T14:05:25;22.10;33.90
72576;DHT22;60613;48.658;2.328;2023-03-14T14:07:52;22.10;34.10
72576;DHT22;60613;48.658;2.328;2023-03-14T14:10:18;22.10;33.70
72576;DHT22;60613;48.658;2.328;2023-03-14T14:12:58;22.10;33.80
72576;DHT22;60613;48.658;2.328;2023-03-14T14:15:31;22.10;33.80
72576;DHT22;60613;48.658;2.328;2023-03-14T14:18:01;22.10;34.10
72576;DHT22;60613;48.658;2.328;2023-03-14T14:20:33;22.10;34.20
72576;DHT22;60613;48.658;2.328;2023-03-14T14:23:04;22.10;34.40
72576;DHT22;60613;48.658;2.328;2023-03-14T14:25:31;22.20;34.50
72576;DHT22;60613;48.658;2.328;2023-03-14T14:27:56;22.10;34.30
72576;DHT22;60613;48.658;2.328;2023-03-14T14:30:29;22.10;34.30
72576;DHT22;60613;48.658;2.328;2023-03-14T14:33:20;22.20;34.20
72576;DHT22;60613;48.658;2.328;2023-03-14T14:35:57;22.10;35.50
72576;DHT22;60613;48.658;2.328;2023-03-14T14:38:24;22.10;34.40
72576;DHT22;60613;48.658;2.328;2023-03-14T14:40:59;22.10;34.40
72576;DHT22;60613;48.658;2.328;2023-03-14T14:43:27;22.10;34.80
72576;DHT22;60613;48.658;2.328;2023-03-14T14:45:54;22.10;34.80
72576;DHT22;60613;48.658;2.328;2023-03-14T14:48:26;22.10;34.60
72576;DHT22;60613;48.658;2.328;2023-03-14T14:51:02;22.10;34.60
72576;DHT22;60613;48.658;2.328;2023-03-14T14:53:38;22.10;34.90
72576;DHT22;60613;48.658;2.328;2023-03-14T14:56:16;22.10;34.90
72576;DHT22;60613;48.658;2.328;2023-03-14T14:58:45;22.20;35.10
72576;DHT22;60613;48.658;2.328;2023-03-14T15:01:12;22.20;34.90
72576;DHT22;60613;48.658;2.328;2023-03-14T15:03:42;22.20;34.90
72576;DHT22;60613;48.658;2.328;2023-03-14T15:06:11;22.10;35.10
72576;DHT22;60613;48.658;2.328;2023-03-14T15:08:37;22.10;35.10
72576;DHT22;60613;48.658;2.328;2023-03-14T15:11:03;22.10;35.30
72576;DHT22;60613;48.658;2.328;2023-03-14T15:13:29;22.10;35.10
72576;DHT22;60613;48.658;2.328;2023-03-14T15:15:54;22.20;35.00
72576;DHT22;60613;48.658;2.328;2023-03-14T15:18:25;22.10;35.00
72576;DHT22;60613;48.658;2.328;2023-03-14T15:20:53;22.10;35.10
72576;DHT22;60613;48.658;2.328;2023-03-14T15:23:21;22.20;34.90
72576;DHT22;60613;48.658;2.328;2023-03-14T15:25:47;22.20;35.10
72576;DHT22;60613;48.658;2.328;2023-03-14T15:30:41;22.10;35.10
72576;DHT22;60613;48.658;2.328;2023-03-14T15:33:07;22.20;35.10
72576;DHT22;60613;48.658;2.328;2023-03-14T15:35:35;22.20;35.10
72576;DHT22;60613;48.658;2.328;2023-03-14T15:38:01;22.10;35.20
72576;DHT22;60613;48.658;2.328;2023-03-14T15:40:27;22.10;35.20
72576;DHT22;60613;48.658;2.328;2023-03-14T15:42:52;22.20;35.10
72576;DHT22;60613;48.658;2.328;2023-03-14T15:45:18;22.20;35.10
72576;DHT22;60613;48.658;2.328;2023-03-14T15:47:44;22.20;35.40
72576;DHT22;60613;48.658;2.328;2023-03-14T15:50:10;22.20;35.10
72576;DHT22;60613;48.658;2.328;2023-03-14T15:52:36;22.20;35.30
72576;DHT22;60613;48.658;2.328;2023-03-14T15:55:02;22.10;35.40
72576;DHT22;60613;48.658;2.328;2023-03-14T15:57:28;22.10;35.10
72576;DHT22;60613;48.658;2.328;2023-03-14T15:59:54;22.10;35.30
72576;DHT22;60613;48.658;2.328;2023-03-14T16:02:19;22.10;35.20
72576;DHT22;60613;48.658;2.328;2023-03-14T16:04:45;22.10;35.20
72576;DHT22;60613;48.658;2.328;2023-03-14T16:07:11;22.10;35.10
72576;DHT22;60613;48.658;2.328;2023-03-14T16:09:36;22.10;35.10
72576;DHT22;60613;48.658;2.328;2023-03-14T16:12:02;22.10;35.10
72576;DHT22;60613;48.658;2.328;2023-03-14T16:14:30;22.10;35.20
72576;DHT22;60613;48.658;2.328;2023-03-14T16:16:56;22.10;35.30
72576;DHT22;60613;48.658;2.328;2023-03-14T16:19:24;22.10;35.10
72576;DHT22;60613;48.658;2.328;2023-03-14T16:21:51;22.10;35.10
72576;DHT22;60613;48.658;2.328;2023-03-14T16:24:17;22.10;35.10
72576;DHT22;60613;48.658;2.328;2023-03-14T16:26:43;22.10;35.10
72576;DHT22;60613;48.658;2.328;2023-03-14T16:29:09;22.10;35.20
72576;DHT22;60613;48.658;2.328;2023-03-14T16:31:35;22.10;35.20
72576;DHT22;60613;48.658;2.328;2023-03-14T16:34:10;22.10;35.30
72576;DHT22;60613;48.658;2.328;2023-03-14T16:36:36;22.10;35.40
72576;DHT22;60613;48.658;2.328;2023-03-14T16:39:02;22.10;35.30
72576;DHT22;60613;48.658;2.328;2023-03-14T16:41:28;22.10;35.30
72576;DHT22;60613;48.658;2.328;2023-03-14T16:43:58;22.10;35.30
72576;DHT22;60613;48.658;2.328;2023-03-14T16:46:26;22.10;35.40
72576;DHT22;60613;48.658;2.328;2023-03-14T16:48:53;22.10;35.40
72576;DHT22;60613;48.658;2.328;2023-03-14T16:51:18;22.10;35.50
72576;DHT22;60613;48.658;2.328;2023-03-14T16:53:45;22.10;35.50
72576;DHT22;60613;48.658;2.328;2023-03-14T16:56:11;22.10;35.70
72576;DHT22;60613;48.658;2.328;2023-03-14T16:58:37;22.10;35.70
72576;DHT22;60613;48.658;2.328;2023-03-14T17:01:08;22.10;36.20
72576;DHT22;60613;48.658;2.328;2023-03-14T17:03:45;22.20;36.40
72576;DHT22;60613;48.658;2.328;2023-03-14T17:06:14;22.20;36.10
72576;DHT22;60613;48.658;2.328;2023-03-14T17:08:40;22.20;36.30
72576;DHT22;60613;48.658;2.328;2023-03-14T17:11:06;22.20;35.80
72576;DHT22;60613;48.658;2.328;2023-03-14T17:13:33;22.20;35.90
72576;DHT22;60613;48.658;2.328;2023-03-14T17:15:59;22.20;35.90
72576;DHT22;60613;48.658;2.328;2023-03-14T17:18:27;22.20;35.90
72576;DHT22;60613;48.658;2.328;2023-03-14T17:20:53;22.20;35.90
72576;DHT22;60613;48.658;2.328;2023-03-14T17:23:20;22.10;36.00
72576;DHT22;60613;48.658;2.328;2023-03-14T17:25:46;22.10;35.90
72576;DHT22;60613;48.658;2.328;2023-03-14T17:28:12;22.10;36.10
72576;DHT22;60613;48.658;2.328;2023-03-14T17:30:38;22.10;36.10
72576;DHT22;60613;48.658;2.328;2023-03-14T17:33:04;22.00;36.10
72576;DHT22;60613;48.658;2.328;2023-03-14T17:35:30;22.00;36.10
72576;DHT22;60613;48.658;2.328;2023-03-14T17:37:56;21.90;36.40
72576;DHT22;60613;48.658;2.328;2023-03-14T17:40:21;21.70;36.70
72576;DHT22;60613;48.658;2.328;2023-03-14T17:42:47;21.70;36.60
72576;DHT22;60613;48.658;2.328;2023-03-14T17:45:13;21.80;36.70
72576;DHT22;60613;48.658;2.328;2023-03-14T17:47:39;21.80;37.00
72576;DHT22;60613;48.658;2.328;2023-03-14T17:50:05;21.70;38.40
72576;DHT22;60613;48.658;2.328;2023-03-14T17:52:34;21.70;38.80
72576;DHT22;60613;48.658;2.328;2023-03-14T17:55:00;21.60;39.00
72576;DHT22;60613;48.658;2.328;2023-03-14T17:57:27;21.70;38.80
72576;DHT22;60613;48.658;2.328;2023-03-14T17:59:53;21.70;40.20
72576;DHT22;60613;48.658;2.328;2023-03-14T18:02:19;21.60;40.30
72576;DHT22;60613;48.658;2.328;2023-03-14T18:04:46;21.70;40.80
72576;DHT22;60613;48.658;2.328;2023-03-14T18:07:11;21.60;42.10
72576;DHT22;60613;48.658;2.328;2023-03-14T18:09:38;21.70;41.20
72576;DHT22;60613;48.658;2.328;2023-03-14T18:12:04;21.80;41.40
72576;DHT22;60613;48.658;2.328;2023-03-14T18:14:30;21.80;39.00
72576;DHT22;60613;48.658;2.328;2023-03-14T18:16:56;21.80;40.70
72576;DHT22;60613;48.658;2.328;2023-03-14T18:19:22;21.70;40.50
72576;DHT22;60613;48.658;2.328;2023-03-14T18:21:48;21.70;39.20
72576;DHT22;60613;48.658;2.328;2023-03-14T18:24:16;21.70;38.40
72576;DHT22;60613;48.658;2.328;2023-03-14T18:26:43;21.60;38.30
72576;DHT22;60613;48.658;2.328;2023-03-14T18:29:09;21.70;38.30
72576;DHT22;60613;48.658;2.328;2023-03-14T18:31:41;21.70;38.00
72576;DHT22;60613;48.658;2.328;2023-03-14T18:34:08;21.70;38.10
72576;DHT22;60613;48.658;2.328;2023-03-14T18:36:34;21.80;37.80
72576;DHT22;60613;48.658;2.328;2023-03-14T18:39:00;21.80;37.60
72576;DHT22;60613;48.658;2.328;2023-03-14T18:41:26;21.80;37.30
72576;DHT22;60613;48.658;2.328;2023-03-14T18:43:52;21.70;37.30
72576;DHT22;60613;48.658;2.328;2023-03-14T18:46:19;21.70;37.20
72576;DHT22;60613;48.658;2.328;2023-03-14T18:48:46;21.70;37.00
72576;DHT22;60613;48.658;2.328;2023-03-14T18:51:13;21.80;37.00
72576;DHT22;60613;48.658;2.328;2023-03-14T18:53:41;21.80;36.70
72576;DHT22;60613;48.658;2.328;2023-03-14T18:56:07;21.80;36.70
72576;DHT22;60613;48.658;2.328;2023-03-14T18:58:33;21.80;36.60
72576;DHT22;60613;48.658;2.328;2023-03-14T19:01:00;21.80;36.50
72576;DHT22;60613;48.658;2.328;2023-03-14T19:03:27;21.80;36.40
72576;DHT22;60613;48.658;2.328;2023-03-14T19:05:54;21.80;36.50
72576;DHT22;60613;48.658;2.328;2023-03-14T19:08:20;21.80;36.40
72576;DHT22;60613;48.658;2.328;2023-03-14T19:10:56;21.90;36.30
72576;DHT22;60613;48.658;2.328;2023-03-14T19:13:25;21.90;36.40
72576;DHT22;60613;48.658;2.328;2023-03-14T19:15:51;21.80;36.20
72576;DHT22;60613;48.658;2.328;2023-03-14T19:18:17;21.80;36.20
72576;DHT22;60613;48.658;2.328;2023-03-14T19:20:43;21.80;36.40
72576;DHT22;60613;48.658;2.328;2023-03-14T19:23:11;21.80;36.30
72576;DHT22;60613;48.658;2.328;2023-03-14T19:25:40;21.80;36.30
72576;DHT22;60613;48.658;2.328;2023-03-14T19:28:09;21.70;36.50
72576;DHT22;60613;48.658;2.328;2023-03-14T19:30:35;21.80;36.40
72576;DHT22;60613;48.658;2.328;2023-03-14T19:33:00;21.70;36.40
72576;DHT22;60613;48.658;2.328;2023-03-14T19:35:26;21.70;36.40
72576;DHT22;60613;48.658;2.328;2023-03-14T19:37:52;21.70;36.50
72576;DHT22;60613;48.658;2.328;2023-03-14T19:40:17;21.70;36.50
72576;DHT22;60613;48.658;2.328;2023-03-14T19:42:43;21.60;36.50
72576;DHT22;60613;48.658;2.328;2023-03-14T19:45:09;21.60;36.60
72576;DHT22;60613;48.658;2.328;2023-03-14T19:47:36;21.50;36.80
72576;DHT22;60613;48.658;2.328;2023-03-14T19:50:02;21.50;36.90
72576;DHT22;60613;48.658;2.328;2023-03-14T19:52:27;21.50;36.70
72576;DHT22;60613;48.658;2.328;2023-03-14T19:54:53;21.50;36.70
72576;DHT22;60613;48.658;2.328;2023-03-14T19:57:19;21.50;36.40
72576;DHT22;60613;48.658;2.328;2023-03-14T19:59:45;21.50;37.60
